sensor_id;sensor_type;location;lat;lon;timestamp;temperature;humidity
70928;SHT31;58587;53.034;18.576;2024-01-30T00:00:37;0.53;91.50
70928;SHT31;58587;53.034;18.576;2024-01-30T00:03:03;0.53;91.56
70928;SHT31;58587;53.034;18.576;2024-01-30T00:05:28;0.52;91.52
70928;SHT31;58587;53.034;18.576;2024-01-30T00:07:53;0.46;91.43
70928;SHT31;58587;53.034;18.576;2024-01-30T00:10:19;0.42;91.38
70928;SHT31;58587;53.034;18.576;2024-01-30T00:12:44;0.38;91.50
70928;SHT31;58587;53.034;18.576;2024-01-30T00:15:09;0.38;91.52
70928;SHT31;58587;53.034;18.576;2024-01-30T00:17:36;0.38;91.63
70928;SHT31;58587;53.034;18.576;2024-01-30T00:20:02;0.38;91.54
70928;SHT31;58587;53.034;18.576;2024-01-30T00:22:30;0.32;91.64
70928;SHT31;58587;53.034;18.576;2024-01-30T00:24:55;0.33;91.66
70928;SHT31;58587;53.034;18.576;2024-01-30T00:27:21;0.33;91.72
70928;SHT31;58587;53.034;18.576;2024-01-30T00:29:46;0.29;91.58
70928;SHT31;58587;53.034;18.576;2024-01-30T00:32:11;0.26;91.62
70928;SHT31;58587;53.034;18.576;2024-01-30T00:34:37;0.26;91.56
70928;SHT31;58587;53.034;18.576;2024-01-30T00:37:02;0.22;91.62
70928;SHT31;58587;53.034;18.576;2024-01-30T00:39:27;0.21;91.53
70928;SHT31;58587;53.034;18.576;2024-01-30T00:41:53;0.22;91.60
70928;SHT31;58587;53.034;18.576;2024-01-30T00:44:18;0.17;91.68
70928;SHT31;58587;53.034;18.576;2024-01-30T00:46:43;0.19;91.57
70928;SHT31;58587;53.034;18.576;2024-01-30T00:49:09;0.15;91.70
70928;SHT31;58587;53.034;18.576;2024-01-30T00:51:34;0.15;91.67
70928;SHT31;58587;53.034;18.576;2024-01-30T00:53:59;0.15;91.65
70928;SHT31;58587;53.034;18.576;2024-01-30T00:56:24;0.17;91.60
70928;SHT31;58587;53.034;18.576;2024-01-30T00:58:50;0.11;91.87
70928;SHT31;58587;53.034;18.576;2024-01-30T01:01:15;0.12;91.76
70928;SHT31;58587;53.034;18.576;2024-01-30T01:03:40;0.11;91.99
70928;SHT31;58587;53.034;18.576;2024-01-30T01:06:08;0.10;91.89
70928;SHT31;58587;53.034;18.576;2024-01-30T01:08:34;0.11;91.84
70928;SHT31;58587;53.034;18.576;2024-01-30T01:10:59;0.08;91.79
70928;SHT31;58587;53.034;18.576;2024-01-30T01:13:24;0.07;91.88
70928;SHT31;58587;53.034;18.576;2024-01-30T01:15:49;0.05;91.96
70928;SHT31;58587;53.034;18.576;2024-01-30T01:18:15;0.07;91.98
70928;SHT31;58587;53.034;18.576;2024-01-30T01:20:41;0.05;92.14
70928;SHT31;58587;53.034;18.576;2024-01-30T01:23:06;0.04;92.13
70928;SHT31;58587;53.034;18.576;2024-01-30T01:25:31;0.04;92.11
70928;SHT31;58587;53.034;18.576;2024-01-30T01:27:56;0.02;92.08
70928;SHT31;58587;53.034;18.576;2024-01-30T01:30:22;0.05;92.03
70928;SHT31;58587;53.034;18.576;2024-01-30T01:32:50;0.05;92.24
70928;SHT31;58587;53.034;18.576;2024-01-30T01:35:23;0.01;91.96
70928;SHT31;58587;53.034;18.576;2024-01-30T01:37:52;0.04;92.42
70928;SHT31;58587;53.034;18.576;2024-01-30T01:40:27;0.05;92.19
70928;SHT31;58587;53.034;18.576;2024-01-30T01:42:53;0.05;92.10
70928;SHT31;58587;53.034;18.576;2024-01-30T01:45:19;0.04;92.06
70928;SHT31;58587;53.034;18.576;2024-01-30T01:47:47;0.07;92.18
70928;SHT31;58587;53.034;18.576;2024-01-30T01:50:13;0.01;92.15
70928;SHT31;58587;53.034;18.576;2024-01-30T01:52:44;0.04;92.16
70928;SHT31;58587;53.034;18.576;2024-01-30T01:55:11;0.02;92.27
70928;SHT31;58587;53.034;18.576;2024-01-30T01:57:37;0.01;91.98
70928;SHT31;58587;53.034;18.576;2024-01-30T02:00:03;0.00;91.97
70928;SHT31;58587;53.034;18.576;2024-01-30T02:02:30;-0.03;92.13
70928;SHT31;58587;53.034;18.576;2024-01-30T02:04:57;-0.03;92.14
70928;SHT31;58587;53.034;18.576;2024-01-30T02:07:24;-0.03;92.09
70928;SHT31;58587;53.034;18.576;2024-01-30T02:09:49;-0.06;92.13
70928;SHT31;58587;53.034;18.576;2024-01-30T02:12:14;-0.06;92.06
70928;SHT31;58587;53.034;18.576;2024-01-30T02:14:46;-0.07;92.10
70928;SHT31;58587;53.034;18.576;2024-01-30T02:17:12;-0.10;92.00
70928;SHT31;58587;53.034;18.576;2024-01-30T02:19:38;-0.07;92.03
70928;SHT31;58587;53.034;18.576;2024-01-30T02:22:04;-0.07;91.90
70928;SHT31;58587;53.034;18.576;2024-01-30T02:24:29;-0.10;92.03
70928;SHT31;58587;53.034;18.576;2024-01-30T02:26:55;-0.10;92.08
70928;SHT31;58587;53.034;18.576;2024-01-30T02:29:20;-0.12;92.19
70928;SHT31;58587;53.034;18.576;2024-01-30T02:31:46;-0.16;92.09
70928;SHT31;58587;53.034;18.576;2024-01-30T02:34:11;-0.12;92.09
70928;SHT31;58587;53.034;18.576;2024-01-30T02:36:36;-0.16;92.15
70928;SHT31;58587;53.034;18.576;2024-01-30T02:39:03;-0.16;92.09
70928;SHT31;58587;53.034;18.576;2024-01-30T02:41:28;-0.17;92.07
70928;SHT31;58587;53.034;18.576;2024-01-30T02:43:53;-0.16;91.99
70928;SHT31;58587;53.034;18.576;2024-01-30T02:46:19;-0.23;92.07
70928;SHT31;58587;53.034;18.576;2024-01-30T02:48:44;-0.19;92.07
70928;SHT31;58587;53.034;18.576;2024-01-30T02:51:09;-0.23;92.07
70928;SHT31;58587;53.034;18.576;2024-01-30T02:53:35;-0.26;92.07
70928;SHT31;58587;53.034;18.576;2024-01-30T02:56:02;-0.26;92.10
70928;SHT31;58587;53.034;18.576;2024-01-30T02:58:27;-0.26;92.26
70928;SHT31;58587;53.034;18.576;2024-01-30T03:00:53;-0.29;92.27
70928;SHT31;58587;53.034;18.576;2024-01-30T03:03:18;-0.34;92.26
70928;SHT31;58587;53.034;18.576;2024-01-30T03:05:43;-0.37;92.44
70928;SHT31;58587;53.034;18.576;2024-01-30T03:08:09;-0.38;92.51
70928;SHT31;58587;53.034;18.576;2024-01-30T03:10:34;-0.37;92.49
70928;SHT31;58587;53.034;18.576;2024-01-30T03:12:59;-0.37;92.51
70928;SHT31;58587;53.034;18.576;2024-01-30T03:15:24;-0.40;92.47
70928;SHT31;58587;53.034;18.576;2024-01-30T03:17:50;-0.36;92.43
70928;SHT31;58587;53.034;18.576;2024-01-30T03:20:15;-0.37;92.37
70928;SHT31;58587;53.034;18.576;2024-01-30T03:22:41;-0.34;92.41
70928;SHT31;58587;53.034;18.576;2024-01-30T03:25:06;-0.37;92.25
70928;SHT31;58587;53.034;18.576;2024-01-30T03:27:32;-0.38;92.35
70928;SHT31;58587;53.034;18.576;2024-01-30T03:29:57;-0.41;92.34
70928;SHT31;58587;53.034;18.576;2024-01-30T03:32:22;-0.41;92.55
70928;SHT31;58587;53.034;18.576;2024-01-30T03:34:48;-0.41;92.64
70928;SHT31;58587;53.034;18.576;2024-01-30T03:37:13;-0.44;92.58
70928;SHT31;58587;53.034;18.576;2024-01-30T03:39:38;-0.44;92.71
70928;SHT31;58587;53.034;18.576;2024-01-30T03:42:04;-0.45;92.73
70928;SHT31;58587;53.034;18.576;2024-01-30T03:44:29;-0.45;92.81
70928;SHT31;58587;53.034;18.576;2024-01-30T03:46:54;-0.50;92.80
70928;SHT31;58587;53.034;18.576;2024-01-30T03:49:20;-0.51;92.73
70928;SHT31;58587;53.034;18.576;2024-01-30T03:51:45;-0.54;92.77
70928;SHT31;58587;53.034;18.576;2024-01-30T03:54:12;-0.57;92.72
70928;SHT31;58587;53.034;18.576;2024-01-30T03:56:38;-0.56;92.79
70928;SHT31;58587;53.034;18.576;2024-01-30T03:59:03;-0.56;92.85
70928;SHT31;58587;53.034;18.576;2024-01-30T04:01:28;-0.57;92.66
70928;SHT31;58587;53.034;18.576;2024-01-30T04:03:53;-0.58;92.62
70928;SHT31;58587;53.034;18.576;2024-01-30T04:06:19;-0.57;92.80
70928;SHT31;58587;53.034;18.576;2024-01-30T04:08:44;-0.61;92.77
70928;SHT31;58587;53.034;18.576;2024-01-30T04:11:09;-0.58;92.72
70928;SHT31;58587;53.034;18.576;2024-01-30T04:13:35;-0.58;92.73
70928;SHT31;58587;53.034;18.576;2024-01-30T04:16:01;-0.60;92.97
70928;SHT31;58587;53.034;18.576;2024-01-30T04:18:28;-0.63;92.58
70928;SHT31;58587;53.034;18.576;2024-01-30T04:20:53;-0.65;92.70
70928;SHT31;58587;53.034;18.576;2024-01-30T04:23:18;-0.65;92.87
70928;SHT31;58587;53.034;18.576;2024-01-30T04:25:44;-0.64;92.91
70928;SHT31;58587;53.034;18.576;2024-01-30T04:28:10;-0.64;92.82
70928;SHT31;58587;53.034;18.576;2024-01-30T04:30:37;-0.63;92.82
70928;SHT31;58587;53.034;18.576;2024-01-30T04:33:03;-0.60;92.89
70928;SHT31;58587;53.034;18.576;2024-01-30T04:35:28;-0.60;92.97
70928;SHT31;58587;53.034;18.576;2024-01-30T04:37:53;-0.60;92.78
70928;SHT31;58587;53.034;18.576;2024-01-30T04:40:20;-0.61;92.73
70928;SHT31;58587;53.034;18.576;2024-01-30T04:42:45;-0.57;92.75
70928;SHT31;58587;53.034;18.576;2024-01-30T04:45:11;-0.53;92.69
70928;SHT31;58587;53.034;18.576;2024-01-30T04:47:37;-0.56;92.76
70928;SHT31;58587;53.034;18.576;2024-01-30T04:50:02;-0.51;92.77
70928;SHT31;58587;53.034;18.576;2024-01-30T04:52:29;-0.51;92.62
70928;SHT31;58587;53.034;18.576;2024-01-30T04:54:55;-0.45;92.67
70928;SHT31;58587;53.034;18.576;2024-01-30T04:57:20;-0.41;93.02
70928;SHT31;58587;53.034;18.576;2024-01-30T04:59:45;-0.40;92.69
70928;SHT31;58587;53.034;18.576;2024-01-30T05:02:11;-0.36;92.77
70928;SHT31;58587;53.034;18.576;2024-01-30T05:04:36;-0.36;92.73
70928;SHT31;58587;53.034;18.576;2024-01-30T05:07:01;-0.36;92.69
70928;SHT31;58587;53.034;18.576;2024-01-30T05:09:26;-0.33;92.52
70928;SHT31;58587;53.034;18.576;2024-01-30T05:11:52;-0.33;92.33
70928;SHT31;58587;53.034;18.576;2024-01-30T05:14:17;-0.33;92.31
70928;SHT31;58587;53.034;18.576;2024-01-30T05:16:43;-0.34;92.24
70928;SHT31;58587;53.034;18.576;2024-01-30T05:19:12;-0.30;92.19
70928;SHT31;58587;53.034;18.576;2024-01-30T05:21:37;-0.27;92.27
70928;SHT31;58587;53.034;18.576;2024-01-30T05:24:02;-0.27;92.22
70928;SHT31;58587;53.034;18.576;2024-01-30T05:26:28;-0.29;92.16
70928;SHT31;58587;53.034;18.576;2024-01-30T05:28:53;-0.29;92.12
70928;SHT31;58587;53.034;18.576;2024-01-30T05:31:18;-0.29;92.08
70928;SHT31;58587;53.034;18.576;2024-01-30T05:33:44;-0.29;92.09
70928;SHT31;58587;53.034;18.576;2024-01-30T05:36:11;-0.24;91.97
70928;SHT31;58587;53.034;18.576;2024-01-30T05:38:37;-0.22;92.09
70928;SHT31;58587;53.034;18.576;2024-01-30T05:41:02;-0.24;91.89
70928;SHT31;58587;53.034;18.576;2024-01-30T05:43:27;-0.23;91.87
70928;SHT31;58587;53.034;18.576;2024-01-30T05:45:53;-0.26;92.16
70928;SHT31;58587;53.034;18.576;2024-01-30T05:48:18;-0.29;92.21
70928;SHT31;58587;53.034;18.576;2024-01-30T05:50:43;-0.33;92.39
70928;SHT31;58587;53.034;18.576;2024-01-30T05:53:09;-0.33;92.53
70928;SHT31;58587;53.034;18.576;2024-01-30T05:55:34;-0.36;92.46
70928;SHT31;58587;53.034;18.576;2024-01-30T05:57:59;-0.34;92.63
70928;SHT31;58587;53.034;18.576;2024-01-30T06:00:25;-0.33;92.37
70928;SHT31;58587;53.034;18.576;2024-01-30T06:02:50;-0.31;92.28
70928;SHT31;58587;53.034;18.576;2024-01-30T06:05:15;-0.33;92.07
70928;SHT31;58587;53.034;18.576;2024-01-30T06:07:40;-0.34;92.03
70928;SHT31;58587;53.034;18.576;2024-01-30T06:10:06;-0.30;92.37
70928;SHT31;58587;53.034;18.576;2024-01-30T06:12:32;-0.34;92.36
70928;SHT31;58587;53.034;18.576;2024-01-30T06:14:57;-0.31;92.44
70928;SHT31;58587;53.034;18.576;2024-01-30T06:17:25;-0.31;92.27
70928;SHT31;58587;53.034;18.576;2024-01-30T06:19:51;-0.24;92.20
70928;SHT31;58587;53.034;18.576;2024-01-30T06:22:16;-0.22;92.00
70928;SHT31;58587;53.034;18.576;2024-01-30T06:24:42;-0.17;92.01
70928;SHT31;58587;53.034;18.576;2024-01-30T06:27:10;-0.14;91.80
70928;SHT31;58587;53.034;18.576;2024-01-30T06:29:35;-0.13;91.98
70928;SHT31;58587;53.034;18.576;2024-01-30T06:32:00;-0.13;91.69
70928;SHT31;58587;53.034;18.576;2024-01-30T06:34:26;-0.10;91.60
70928;SHT31;58587;53.034;18.576;2024-01-30T06:36:51;-0.06;91.51
70928;SHT31;58587;53.034;18.576;2024-01-30T06:39:16;-0.06;91.64
70928;SHT31;58587;53.034;18.576;2024-01-30T06:41:42;-0.05;91.36
70928;SHT31;58587;53.034;18.576;2024-01-30T06:44:07;-0.03;91.53
70928;SHT31;58587;53.034;18.576;2024-01-30T06:46:33;-0.03;91.38
70928;SHT31;58587;53.034;18.576;2024-01-30T06:48:59;-0.02;91.41
70928;SHT31;58587;53.034;18.576;2024-01-30T06:51:24;0.04;91.46
70928;SHT31;58587;53.034;18.576;2024-01-30T06:53:49;0.04;91.28
70928;SHT31;58587;53.034;18.576;2024-01-30T06:56:15;0.08;91.37
70928;SHT31;58587;53.034;18.576;2024-01-30T06:58:41;0.10;91.43
70928;SHT31;58587;53.034;18.576;2024-01-30T07:01:07;0.12;91.18
70928;SHT31;58587;53.034;18.576;2024-01-30T07:03:32;0.19;91.38
70928;SHT31;58587;53.034;18.576;2024-01-30T07:05:57;0.22;91.16
70928;SHT31;58587;53.034;18.576;2024-01-30T07:08:23;0.21;91.15
70928;SHT31;58587;53.034;18.576;2024-01-30T07:10:48;0.28;91.25
70928;SHT31;58587;53.034;18.576;2024-01-30T07:13:14;0.33;90.62
70928;SHT31;58587;53.034;18.576;2024-01-30T07:15:41;0.40;90.59
70928;SHT31;58587;53.034;18.576;2024-01-30T07:18:07;0.41;90.58
70928;SHT31;58587;53.034;18.576;2024-01-30T07:20:32;0.49;90.29
70928;SHT31;58587;53.034;18.576;2024-01-30T07:22:58;0.58;89.89
70928;SHT31;58587;53.034;18.576;2024-01-30T07:25:24;0.61;89.69
70928;SHT31;58587;53.034;18.576;2024-01-30T07:27:52;0.70;89.67
70928;SHT31;58587;53.034;18.576;2024-01-30T07:30:18;0.75;89.47
70928;SHT31;58587;53.034;18.576;2024-01-30T07:32:43;0.77;89.56
70928;SHT31;58587;53.034;18.576;2024-01-30T07:35:09;0.80;89.33
70928;SHT31;58587;53.034;18.576;2024-01-30T07:37:34;0.86;89.12
70928;SHT31;58587;53.034;18.576;2024-01-30T07:40:01;0.90;88.95
70928;SHT31;58587;53.034;18.576;2024-01-30T07:42:26;0.96;88.68
70928;SHT31;58587;53.034;18.576;2024-01-30T07:44:51;1.01;88.49
70928;SHT31;58587;53.034;18.576;2024-01-30T07:47:17;1.04;88.67
70928;SHT31;58587;53.034;18.576;2024-01-30T07:49:42;1.13;88.09
70928;SHT31;58587;53.034;18.576;2024-01-30T07:52:07;1.17;88.06
70928;SHT31;58587;53.034;18.576;2024-01-30T07:54:32;1.23;88.02
70928;SHT31;58587;53.034;18.576;2024-01-30T07:56:59;1.28;87.79
70928;SHT31;58587;53.034;18.576;2024-01-30T07:59:25;1.34;87.39
70928;SHT31;58587;53.034;18.576;2024-01-30T08:01:50;1.38;87.46
70928;SHT31;58587;53.034;18.576;2024-01-30T08:04:15;1.47;86.97
70928;SHT31;58587;53.034;18.576;2024-01-30T08:06:43;1.48;86.88
70928;SHT31;58587;53.034;18.576;2024-01-30T08:09:08;1.52;86.74
70928;SHT31;58587;53.034;18.576;2024-01-30T08:11:33;1.58;86.81
70928;SHT31;58587;53.034;18.576;2024-01-30T08:13:59;1.61;86.74
70928;SHT31;58587;53.034;18.576;2024-01-30T08:16:24;1.64;86.76
70928;SHT31;58587;53.034;18.576;2024-01-30T08:18:49;1.69;86.83
70928;SHT31;58587;53.034;18.576;2024-01-30T08:21:15;1.74;86.13
70928;SHT31;58587;53.034;18.576;2024-01-30T08:23:40;1.79;85.60
70928;SHT31;58587;53.034;18.576;2024-01-30T08:26:05;1.85;85.60
70928;SHT31;58587;53.034;18.576;2024-01-30T08:28:31;1.86;85.50
70928;SHT31;58587;53.034;18.576;2024-01-30T08:30:56;1.92;85.56
70928;SHT31;58587;53.034;18.576;2024-01-30T08:33:21;1.99;85.60
70928;SHT31;58587;53.034;18.576;2024-01-30T08:35:47;2.05;85.14
70928;SHT31;58587;53.034;18.576;2024-01-30T08:38:12;2.08;85.24
70928;SHT31;58587;53.034;18.576;2024-01-30T08:40:38;2.18;84.36
70928;SHT31;58587;53.034;18.576;2024-01-30T08:43:03;2.23;84.09
70928;SHT31;58587;53.034;18.576;2024-01-30T08:45:29;2.29;84.28
70928;SHT31;58587;53.034;18.576;2024-01-30T08:47:55;2.33;83.97
70928;SHT31;58587;53.034;18.576;2024-01-30T08:50:21;2.40;83.43
70928;SHT31;58587;53.034;18.576;2024-01-30T08:52:46;2.46;83.20
70928;SHT31;58587;53.034;18.576;2024-01-30T08:55:11;2.47;83.00
70928;SHT31;58587;53.034;18.576;2024-01-30T08:57:37;2.54;83.57
70928;SHT31;58587;53.034;18.576;2024-01-30T09:00:02;2.57;83.39
70928;SHT31;58587;53.034;18.576;2024-01-30T09:02:31;2.61;82.79
70928;SHT31;58587;53.034;18.576;2024-01-30T09:04:57;2.68;82.38
70928;SHT31;58587;53.034;18.576;2024-01-30T09:07:22;2.73;82.08
70928;SHT31;58587;53.034;18.576;2024-01-30T09:09:47;2.76;82.18
70928;SHT31;58587;53.034;18.576;2024-01-30T09:12:14;2.76;82.95
70928;SHT31;58587;53.034;18.576;2024-01-30T09:14:39;2.85;81.85
70928;SHT31;58587;53.034;18.576;2024-01-30T09:17:06;2.91;81.59
70928;SHT31;58587;53.034;18.576;2024-01-30T09:19:31;2.95;81.94
70928;SHT31;58587;53.034;18.576;2024-01-30T09:21:56;3.00;81.43
70928;SHT31;58587;53.034;18.576;2024-01-30T09:24:22;3.04;81.64
70928;SHT31;58587;53.034;18.576;2024-01-30T09:26:47;3.12;81.74
70928;SHT31;58587;53.034;18.576;2024-01-30T09:29:12;3.19;81.47
70928;SHT31;58587;53.034;18.576;2024-01-30T09:31:38;3.24;80.76
70928;SHT31;58587;53.034;18.576;2024-01-30T09:34:03;3.32;79.80
70928;SHT31;58587;53.034;18.576;2024-01-30T09:36:28;3.40;80.32
70928;SHT31;58587;53.034;18.576;2024-01-30T09:38:54;3.48;80.11
70928;SHT31;58587;53.034;18.576;2024-01-30T09:41:19;3.56;78.85
70928;SHT31;58587;53.034;18.576;2024-01-30T09:43:48;3.62;79.57
70928;SHT31;58587;53.034;18.576;2024-01-30T09:46:15;3.68;79.91
70928;SHT31;58587;53.034;18.576;2024-01-30T09:48:41;3.75;79.15
70928;SHT31;58587;53.034;18.576;2024-01-30T09:51:09;3.80;78.87
70928;SHT31;58587;53.034;18.576;2024-01-30T09:53:35;3.87;78.80
70928;SHT31;58587;53.034;18.576;2024-01-30T09:56:02;3.91;78.82
70928;SHT31;58587;53.034;18.576;2024-01-30T09:58:27;3.97;79.68
70928;SHT31;58587;53.034;18.576;2024-01-30T10:00:53;4.04;78.40
70928;SHT31;58587;53.034;18.576;2024-01-30T10:03:19;4.10;78.56
70928;SHT31;58587;53.034;18.576;2024-01-30T10:05:50;4.14;77.87
70928;SHT31;58587;53.034;18.576;2024-01-30T10:08:17;4.17;76.94
70928;SHT31;58587;53.034;18.576;2024-01-30T10:10:46;4.21;77.19
70928;SHT31;58587;53.034;18.576;2024-01-30T10:13:12;4.25;77.31
70928;SHT31;58587;53.034;18.576;2024-01-30T10:15:37;4.27;77.17
70928;SHT31;58587;53.034;18.576;2024-01-30T10:18:04;4.36;77.00
70928;SHT31;58587;53.034;18.576;2024-01-30T10:20:32;4.41;76.65
70928;SHT31;58587;53.034;18.576;2024-01-30T10:22:57;4.47;77.21
70928;SHT31;58587;53.034;18.576;2024-01-30T10:25:23;4.57;75.68
70928;SHT31;58587;53.034;18.576;2024-01-30T10:27:53;4.64;75.48
70928;SHT31;58587;53.034;18.576;2024-01-30T10:30:19;4.71;74.91
70928;SHT31;58587;53.034;18.576;2024-01-30T10:32:44;4.84;74.59
70928;SHT31;58587;53.034;18.576;2024-01-30T10:35:10;4.91;74.80
70928;SHT31;58587;53.034;18.576;2024-01-30T10:37:35;4.96;75.02
70928;SHT31;58587;53.034;18.576;2024-01-30T10:40:03;5.04;73.79
70928;SHT31;58587;53.034;18.576;2024-01-30T10:42:32;5.13;73.70
70928;SHT31;58587;53.034;18.576;2024-01-30T10:45:06;5.22;72.80
70928;SHT31;58587;53.034;18.576;2024-01-30T10:47:35;5.27;72.73
70928;SHT31;58587;53.034;18.576;2024-01-30T10:50:02;5.37;71.95
70928;SHT31;58587;53.034;18.576;2024-01-30T10:52:29;5.44;72.32
70928;SHT31;58587;53.034;18.576;2024-01-30T10:54:55;5.54;72.07
70928;SHT31;58587;53.034;18.576;2024-01-30T10:57:24;5.69;71.38
70928;SHT31;58587;53.034;18.576;2024-01-30T10:59:52;5.84;71.63
70928;SHT31;58587;53.034;18.576;2024-01-30T11:02:19;5.95;71.54
70928;SHT31;58587;53.034;18.576;2024-01-30T11:04:45;6.10;70.37
70928;SHT31;58587;53.034;18.576;2024-01-30T11:07:24;6.36;70.89
70928;SHT31;58587;53.034;18.576;2024-01-30T11:09:59;6.53;69.93
70928;SHT31;58587;53.034;18.576;2024-01-30T11:12:29;6.63;68.50
70928;SHT31;58587;53.034;18.576;2024-01-30T11:17:51;7.16;66.73
70928;SHT31;58587;53.034;18.576;2024-01-30T11:20:20;7.18;66.29
70928;SHT31;58587;53.034;18.576;2024-01-30T11:22:46;7.57;68.26
70928;SHT31;58587;53.034;18.576;2024-01-30T11:25:13;7.77;67.13
70928;SHT31;58587;53.034;18.576;2024-01-30T11:27:39;7.83;64.60
70928;SHT31;58587;53.034;18.576;2024-01-30T11:30:05;7.85;63.98
70928;SHT31;58587;53.034;18.576;2024-01-30T11:32:31;7.81;64.01
70928;SHT31;58587;53.034;18.576;2024-01-30T11:34:56;7.88;63.65
70928;SHT31;58587;53.034;18.576;2024-01-30T11:37:25;8.05;63.81
70928;SHT31;58587;53.034;18.576;2024-01-30T11:39:51;8.32;63.33
70928;SHT31;58587;53.034;18.576;2024-01-30T11:42:18;8.25;62.55
70928;SHT31;58587;53.034;18.576;2024-01-30T11:44:47;8.47;62.69
70928;SHT31;58587;53.034;18.576;2024-01-30T11:47:13;8.40;62.39
70928;SHT31;58587;53.034;18.576;2024-01-30T11:49:39;8.50;62.48
70928;SHT31;58587;53.034;18.576;2024-01-30T11:52:05;8.39;61.93
70928;SHT31;58587;53.034;18.576;2024-01-30T11:54:30;8.30;61.63
70928;SHT31;58587;53.034;18.576;2024-01-30T11:56:55;8.64;62.17
70928;SHT31;58587;53.034;18.576;2024-01-30T11:59:20;8.67;61.12
70928;SHT31;58587;53.034;18.576;2024-01-30T12:01:46;8.84;60.45
70928;SHT31;58587;53.034;18.576;2024-01-30T12:04:11;9.05;60.09
70928;SHT31;58587;53.034;18.576;2024-01-30T12:06:37;9.46;59.79
70928;SHT31;58587;53.034;18.576;2024-01-30T12:09:03;9.96;57.93
70928;SHT31;58587;53.034;18.576;2024-01-30T12:11:45;10.36;56.77
70928;SHT31;58587;53.034;18.576;2024-01-30T12:14:11;10.76;56.42
70928;SHT31;58587;53.034;18.576;2024-01-30T12:16:37;11.01;55.42
70928;SHT31;58587;53.034;18.576;2024-01-30T12:19:02;11.25;54.82
70928;SHT31;58587;53.034;18.576;2024-01-30T12:21:29;11.09;53.94
70928;SHT31;58587;53.034;18.576;2024-01-30T12:23:55;11.25;55.10
70928;SHT31;58587;53.034;18.576;2024-01-30T12:26:20;11.32;54.43
70928;SHT31;58587;53.034;18.576;2024-01-30T12:28:49;11.76;54.18
70928;SHT31;58587;53.034;18.576;2024-01-30T12:31:17;11.81;53.27
70928;SHT31;58587;53.034;18.576;2024-01-30T12:33:43;11.77;53.23
70928;SHT31;58587;53.034;18.576;2024-01-30T12:36:08;12.40;52.60
70928;SHT31;58587;53.034;18.576;2024-01-30T12:38:33;11.77;52.61
70928;SHT31;58587;53.034;18.576;2024-01-30T12:40:59;12.01;52.29
70928;SHT31;58587;53.034;18.576;2024-01-30T12:43:25;12.25;51.60
70928;SHT31;58587;53.034;18.576;2024-01-30T12:45:52;12.38;50.97
70928;SHT31;58587;53.034;18.576;2024-01-30T12:48:17;12.38;50.62
70928;SHT31;58587;53.034;18.576;2024-01-30T12:50:43;12.49;50.98
70928;SHT31;58587;53.034;18.576;2024-01-30T12:53:08;12.32;50.97
70928;SHT31;58587;53.034;18.576;2024-01-30T12:55:34;12.81;50.47
70928;SHT31;58587;53.034;18.576;2024-01-30T12:57:59;12.78;50.09
70928;SHT31;58587;53.034;18.576;2024-01-30T13:00:25;12.76;49.95
70928;SHT31;58587;53.034;18.576;2024-01-30T13:02:50;13.15;49.05
70928;SHT31;58587;53.034;18.576;2024-01-30T13:05:16;13.85;49.11
70928;SHT31;58587;53.034;18.576;2024-01-30T13:07:41;14.66;47.94
70928;SHT31;58587;53.034;18.576;2024-01-30T13:10:06;14.77;46.20
70928;SHT31;58587;53.034;18.576;2024-01-30T13:12:32;14.87;46.44
70928;SHT31;58587;53.034;18.576;2024-01-30T13:14:58;13.43;46.66
70928;SHT31;58587;53.034;18.576;2024-01-30T13:17:25;13.58;47.74
70928;SHT31;58587;53.034;18.576;2024-01-30T13:19:51;12.99;47.99
70928;SHT31;58587;53.034;18.576;2024-01-30T13:22:16;12.88;48.91
70928;SHT31;58587;53.034;18.576;2024-01-30T13:24:41;12.07;50.41
70928;SHT31;58587;53.034;18.576;2024-01-30T13:27:07;11.83;51.99
70928;SHT31;58587;53.034;18.576;2024-01-30T13:29:32;11.62;53.00
70928;SHT31;58587;53.034;18.576;2024-01-30T13:31:58;10.89;53.85
70928;SHT31;58587;53.034;18.576;2024-01-30T13:34:23;10.72;55.11
70928;SHT31;58587;53.034;18.576;2024-01-30T13:36:48;10.43;55.74
70928;SHT31;58587;53.034;18.576;2024-01-30T13:39:14;10.11;56.75
70928;SHT31;58587;53.034;18.576;2024-01-30T13:41:41;9.92;57.80
70928;SHT31;58587;53.034;18.576;2024-01-30T13:44:07;9.48;58.24
70928;SHT31;58587;53.034;18.576;2024-01-30T13:46:34;9.19;59.00
70928;SHT31;58587;53.034;18.576;2024-01-30T13:48:59;9.15;59.84
70928;SHT31;58587;53.034;18.576;2024-01-30T13:51:25;9.00;60.35
70928;SHT31;58587;53.034;18.576;2024-01-30T13:53:50;8.76;60.69
70928;SHT31;58587;53.034;18.576;2024-01-30T13:56:15;8.63;61.99
70928;SHT31;58587;53.034;18.576;2024-01-30T13:58:41;8.37;61.63
70928;SHT31;58587;53.034;18.576;2024-01-30T14:01:06;8.26;62.35
70928;SHT31;58587;53.034;18.576;2024-01-30T14:03:31;8.19;62.49
70928;SHT31;58587;53.034;18.576;2024-01-30T14:05:57;8.16;63.66
70928;SHT31;58587;53.034;18.576;2024-01-30T14:08:23;7.99;63.77
70928;SHT31;58587;53.034;18.576;2024-01-30T14:10:51;7.89;63.96
70928;SHT31;58587;53.034;18.576;2024-01-30T14:13:17;7.83;64.61
70928;SHT31;58587;53.034;18.576;2024-01-30T14:15:42;7.71;65.02
70928;SHT31;58587;53.034;18.576;2024-01-30T14:18:08;7.65;65.39
70928;SHT31;58587;53.034;18.576;2024-01-30T14:20:34;7.62;65.47
70928;SHT31;58587;53.034;18.576;2024-01-30T14:22:59;7.61;65.79
70928;SHT31;58587;53.034;18.576;2024-01-30T14:25:25;7.52;66.14
70928;SHT31;58587;53.034;18.576;2024-01-30T14:27:51;7.50;66.84
70928;SHT31;58587;53.034;18.576;2024-01-30T14:30:17;7.44;66.98
70928;SHT31;58587;53.034;18.576;2024-01-30T14:32:42;7.44;67.00
70928;SHT31;58587;53.034;18.576;2024-01-30T14:35:09;7.37;67.59
70928;SHT31;58587;53.034;18.576;2024-01-30T14:37:35;7.31;67.64
70928;SHT31;58587;53.034;18.576;2024-01-30T14:40:01;7.24;68.13
70928;SHT31;58587;53.034;18.576;2024-01-30T14:42:26;7.18;68.54
70928;SHT31;58587;53.034;18.576;2024-01-30T14:44:52;7.16;68.91
70928;SHT31;58587;53.034;18.576;2024-01-30T14:47:17;7.00;69.31
70928;SHT31;58587;53.034;18.576;2024-01-30T14:49:43;6.99;69.58
70928;SHT31;58587;53.034;18.576;2024-01-30T14:52:08;6.86;69.87
70928;SHT31;58587;53.034;18.576;2024-01-30T14:54:36;6.86;69.99
70928;SHT31;58587;53.034;18.576;2024-01-30T14:57:01;6.82;70.59
70928;SHT31;58587;53.034;18.576;2024-01-30T14:59:26;6.77;70.61
70928;SHT31;58587;53.034;18.576;2024-01-30T15:01:52;6.66;71.06
70928;SHT31;58587;53.034;18.576;2024-01-30T15:04:17;6.53;71.44
70928;SHT31;58587;53.034;18.576;2024-01-30T15:06:42;6.52;71.34
70928;SHT31;58587;53.034;18.576;2024-01-30T15:09:11;6.39;71.92
70928;SHT31;58587;53.034;18.576;2024-01-30T15:11:40;6.33;72.30
70928;SHT31;58587;53.034;18.576;2024-01-30T15:14:05;6.24;72.63
70928;SHT31;58587;53.034;18.576;2024-01-30T15:16:31;6.20;72.78
70928;SHT31;58587;53.034;18.576;2024-01-30T15:18:56;6.11;72.94